Time;durP1;ratioP1;P1;durP2;ratioP2;P2;SDS_P1;SDS_P2;PMS_P1;PMS_P2;Temp;Humidity;BMP_temperature;BMP_pressure;BME280_temperature;BME280_humidity;BME280_pressure;Samples;Min_cycle;Max_cycle;Signal;HPM_P1;HPM_P2
2021/10/26 00:00:31;;;;;;;48.00;25.00;;;;;;;4.38;68.15;100656.39;113342;1193;139061;-71
2021/10/26 00:03:19;;;;;;;39.10;23.60;;;;;;;4.38;68.07;100652.77;113187;1196;97946;-71
2021/10/26 00:06:05;;;;;;;45.40;23.70;;;;;;;4.36;68.07;100653.80;113980;1193;137527;-71
2021/10/26 00:08:52;;;;;;;39.30;22.10;;;;;;;4.34;68.18;100647.61;113436;1193;112142;-70
2021/10/26 00:11:40;;;;;;;40.80;22.70;;;;;;;4.31;67.98;100650.70;113256;1193;139216;-69
2021/10/26 00:14:27;;;;;;;42.20;23.00;;;;;;;4.29;68.15;100651.73;113358;1193;108131;-70
2021/10/26 00:17:16;;;;;;;39.80;23.10;;;;;;;4.27;68.10;100648.63;113193;1193;138182;-70
2021/10/26 00:20:05;;;;;;;42.50;22.60;;;;;;;4.24;68.20;100641.40;113475;1193;97585;-70
2021/10/26 00:22:52;;;;;;;41.60;23.10;;;;;;;4.21;68.19;100639.34;113227;1193;137698;-71
2021/10/26 00:25:40;;;;;;;;;;;;;;;4.19;68.32;100641.75;113359;1193;108725;-70
2021/10/26 00:28:27;;;;;;;37.70;20.90;;;;;;;4.17;68.26;100642.79;113303;1193;107057;-70
2021/10/26 00:31:14;;;;;;;35.80;20.50;;;;;;;4.14;68.39;100635.73;114648;1193;137549;-70
2021/10/26 00:34:01;;;;;;;37.00;21.00;;;;;;;4.14;68.23;100634.20;114487;1193;96225;-70
2021/10/26 00:36:49;;;;;;;37.40;21.00;;;;;;;4.15;68.32;100638.31;114625;1193;137429;-70
2021/10/26 00:39:36;;;;;;;34.60;20.60;;;;;;;4.14;68.33;100637.80;114721;1193;110273;-70
2021/10/26 00:42:23;;;;;;;36.60;20.80;;;;;;;4.15;68.30;100640.39;114669;1187;140395;-70
2021/10/26 00:45:10;;;;;;;40.70;20.10;;;;;;;4.17;68.30;100639.52;114733;1193;95791;-70
2021/10/26 00:47:56;;;;;;;39.00;20.50;;;;;;;4.17;68.19;100636.25;114628;1193;137534;-70
2021/10/26 00:50:44;;;;;;;37.60;21.80;;;;;;;4.16;68.22;100639.17;114749;1193;112047;-70
2021/10/26 00:53:31;;;;;;;36.50;20.80;;;;;;;4.15;68.11;100640.56;113311;1193;138676;-69
2021/10/26 00:56:20;;;;;;;32.70;19.70;;;;;;;4.12;67.98;100637.60;113390;1193;108494;-70
2021/10/26 00:59:08;;;;;;;33.40;19.10;;;;;;;4.12;68.10;100641.21;113268;1193;138245;-69
2021/10/26 01:01:57;;;;;;;33.70;19.90;;;;;;;4.13;68.01;100637.78;114694;1186;96175;-70
2021/10/26 01:04:45;;;;;;;39.60;21.30;;;;;;;4.12;67.99;100637.08;114758;1193;111188;-70
2021/10/26 01:07:32;;;;;;;35.60;19.70;;;;;;;4.10;68.19;100634.16;114671;1193;137433;-70
2021/10/26 01:10:19;;;;;;;30.80;17.60;;;;;;;4.09;68.17;100627.97;114757;1193;108490;-70
2021/10/26 01:13:06;;;;;;;33.70;20.10;;;;;;;4.11;68.00;100628.83;114511;1193;138401;-70
2021/10/26 01:15:57;;;;;;;30.70;18.60;;;;;;;4.12;67.93;100628.66;114754;1193;95593;-70
2021/10/26 01:18:49;;;;;;;35.80;18.90;;;;;;;4.14;68.09;100627.48;114658;1193;139145;-70
2021/10/26 01:21:37;;;;;;;33.60;19.70;;;;;;;4.13;67.94;100628.34;113797;1193;108548;-70
2021/10/26 01:24:23;;;;;;;31.70;18.60;;;;;;;4.12;67.87;100627.96;113151;1193;138120;-69
2021/10/26 01:27:10;;;;;;;34.00;18.80;;;;;;;4.10;67.93;100623.84;113318;1193;97566;-69
2021/10/26 01:29:58;;;;;;;34.20;19.50;;;;;;;4.08;67.97;100625.05;113221;1193;138171;-69
2021/10/26 01:32:45;;;;;;;34.00;18.70;;;;;;;4.07;67.93;100622.63;113413;1193;112231;-69
2021/10/26 01:35:56;;;;;;;28.40;17.80;;;;;;;4.05;67.88;100619.02;113738;1193;138822;-70
2021/10/26 01:38:44;;;;;;;31.00;18.20;;;;;;;4.00;68.10;100622.64;114810;1193;107645;-71
2021/10/26 01:41:31;;;;;;;33.40;17.70;;;;;;;3.97;68.05;100619.21;114636;1193;137447;-70
2021/10/26 01:44:18;;;;;;;39.50;19.40;;;;;;;3.97;68.20;100615.77;114794;1193;96075;-70
2021/10/26 01:47:05;;;;;;;36.20;18.20;;;;;;;3.98;68.17;100618.17;114749;1193;112486;-71
2021/10/26 01:49:52;;;;;;;37.20;18.30;;;;;;;3.98;68.00;100619.73;114676;1193;137346;-70
2021/10/26 01:52:42;;;;;;;35.10;19.00;;;;;;;3.97;68.07;100614.73;114270;1193;108618;-70
2021/10/26 01:55:29;;;;;;;30.80;17.10;;;;;;;3.94;68.05;100616.11;113660;1193;137898;-69
2021/10/26 01:58:18;;;;;;;30.70;16.90;;;;;;;3.91;68.06;100615.39;113279;1193;99646;-71
2021/10/26 02:01:29;;;;;;;30.10;17.60;;;;;;;3.89;68.16;100613.34;113275;1193;138725;-69
2021/10/26 02:04:16;;;;;;;31.90;17.40;;;;;;;3.89;68.17;100613.34;114800;1193;107615;-70
2021/10/26 02:07:03;;;;;;;31.20;17.90;;;;;;;3.87;68.29;100610.92;113812;1193;136711;-70
2021/10/26 02:09:50;;;;;;;36.00;18.10;;;;;;;3.86;68.35;100613.52;114795;1193;95684;-68
2021/10/26 02:12:38;;;;;;;27.60;16.10;;;;;;;3.83;68.21;100611.80;113213;1193;137737;-70
2021/10/26 02:15:25;;;;;;;;;;;;;;;3.83;68.03;100613.00;113497;1193;112203;-70
2021/10/26 02:18:12;;;;;;;27.60;16.50;;;;;;;3.81;68.43;100619.02;113352;1193;124234;-70
2021/10/26 02:20:59;;;;;;;29.50;17.20;;;;;;;3.80;68.36;100611.98;113376;1193;108457;-70
2021/10/26 02:23:46;;;;;;;30.00;17.40;;;;;;;3.79;68.35;100613.00;114674;1193;137648;-68
2021/10/26 02:26:34;;;;;;;34.10;18.40;;;;;;;3.75;68.43;100612.11;114753;1193;96007;-69
2021/10/26 02:29:21;;;;;;;27.60;16.20;;;;;;;3.73;68.29;100609.19;114769;1193;112127;-69
2021/10/26 02:32:13;;;;;;;31.20;16.90;;;;;;;3.73;68.50;100608.84;114808;1193;109103;-69
2021/10/26 02:35:00;;;;;;;30.60;16.50;;;;;;;3.74;68.41;100605.92;114019;1193;106379;-70
2021/10/26 02:37:47;;;;;;;36.10;18.80;;;;;;;3.75;68.29;100606.95;113293;1193;137652;-70
2021/10/26 02:40:35;;;;;;;35.00;18.30;;;;;;;3.74;68.46;100605.76;113321;1195;97657;-70
2021/10/26 02:43:21;;;;;;;30.40;17.70;;;;;;;3.72;68.35;100605.23;113313;1193;137434;-69
2021/10/26 02:46:09;;;;;;;29.60;16.40;;;;;;;3.70;68.36;100600.60;113433;1193;107444;-70
2021/10/26 02:48:56;;;;;;;28.70;16.60;;;;;;;3.68;68.57;100603.17;113306;1193;137941;-70
2021/10/26 02:51:43;;;;;;;27.80;15.90;;;;;;;3.68;68.43;100602.14;113416;1193;97709;-70
2021/10/26 02:54:30;;;;;;;32.80;17.20;;;;;;;3.68;68.30;100598.36;113267;1193;138175;-70
2021/10/26 02:57:17;;;;;;;30.90;16.20;;;;;;;3.67;68.43;100596.47;113380;1193;112221;-70
2021/10/26 03:00:07;;;;;;;25.50;15.20;;;;;;;3.63;68.39;100602.65;113320;1193;138233;-69
2021/10/26 03:02:54;;;;;;;28.90;15.10;;;;;;;3.59;68.31;100601.79;114028;1193;107370;-70
2021/10/26 03:05:41;;;;;;;31.30;16.20;;;;;;;3.56;68.46;100607.44;113338;1193;97612;-70
2021/10/26 03:08:28;;;;;;;;;;;;;;;3.54;68.57;100608.64;113251;1193;137458;-71
2021/10/26 03:11:17;;;;;;;27.10;15.70;;;;;;;3.51;68.77;100603.83;113446;1193;112362;-70
2021/10/26 03:14:05;;;;;;;26.40;15.00;;;;;;;3.50;68.78;100606.41;113341;1193;137678;-71
2021/10/26 03:16:52;;;;;;;25.40;14.10;;;;;;;3.49;68.76;100605.55;114722;1193;108561;-72
2021/10/26 03:19:39;;;;;;;24.30;13.90;;;;;;;3.50;68.72;100609.33;114547;1194;139940;-68
2021/10/26 03:22:26;;;;;;;24.60;14.20;;;;;;;3.52;68.74;100603.66;114752;1193;95858;-70
2021/10/26 03:25:12;;;;;;;25.80;14.60;;;;;;;3.56;68.70;100601.77;114619;1193;137387;-70
2021/10/26 03:27:59;;;;;;;25.00;14.50;;;;;;;3.59;68.77;100597.66;114665;1193;108541;-70
2021/10/26 03:30:47;;;;;;;25.90;14.80;;;;;;;3.60;68.59;100596.48;114617;1193;137817;-68
2021/10/26 03:33:45;;;;;;;29.90;16.00;;;;;;;3.60;68.56;100599.23;114759;1193;95768;-68
2021/10/26 03:36:33;;;;;;;28.00;16.00;;;;;;;3.59;68.62;100602.12;114576;1193;138665;-68
2021/10/26 03:39:20;;;;;;;31.30;15.40;;;;;;;3.56;68.59;100603.14;114750;1193;110721;-69
2021/10/26 03:42:07;;;;;;;32.90;16.30;;;;;;;3.54;68.65;100604.34;114613;1193;138745;-68
2021/10/26 03:44:54;;;;;;;28.70;16.40;;;;;;;3.51;68.49;100603.31;114742;1193;108490;-69
2021/10/26 03:47:42;;;;;;;25.90;15.40;;;;;;;3.49;68.73;100606.58;114682;1193;95867;-69
2021/10/26 03:50:29;;;;;;;25.10;15.30;;;;;;;3.46;68.83;100610.19;114659;1193;137741;-69
2021/10/26 03:53:17;;;;;;;26.60;14.90;;;;;;;3.43;68.79;100609.14;114692;1195;112306;-68
2021/10/26 03:56:04;;;;;;;24.70;15.40;;;;;;;3.41;68.89;100607.09;114610;1193;139074;-68
2021/10/26 03:58:52;;;;;;;29.70;16.10;;;;;;;3.41;68.76;100606.38;114713;1193;108544;-68
2021/10/26 04:01:39;;;;;;;27.00;15.40;;;;;;;3.40;68.94;100607.91;114593;1193;137620;-68
2021/10/26 04:04:27;;;;;;;26.80;15.60;;;;;;;3.39;68.90;100605.85;113554;1193;97488;-70
2021/10/26 04:07:13;;;;;;;35.80;16.50;;;;;;;3.35;69.13;100601.02;113205;1193;138066;-69
2021/10/26 04:10:04;;;;;;;26.10;15.40;;;;;;;3.32;69.15;100600.52;113455;1193;108289;-69
2021/10/26 04:12:53;;;;;;;30.80;15.10;;;;;;;3.31;69.13;100597.42;113311;1193;138387;-70
2021/10/26 04:15:41;;;;;;;26.80;15.90;;;;;;;3.30;69.23;100597.07;114764;1193;95964;-69
2021/10/26 04:18:28;;;;;;;27.70;15.90;;;;;;;3.29;69.06;100594.66;113848;1193;137879;-70
2021/10/26 04:21:17;;;;;;;25.70;14.40;;;;;;;3.24;69.24;100591.90;113249;1193;112138;-71
2021/10/26 04:24:05;;;;;;;26.20;14.70;;;;;;;3.22;69.46;100586.38;113148;1193;138462;-69
2021/10/26 04:26:52;;;;;;;25.90;14.40;;;;;;;3.24;69.40;100590.17;113231;1193;108590;-71
2021/10/26 04:29:41;;;;;;;26.60;15.40;;;;;;;3.28;69.55;100588.65;113380;1194;97607;-69
2021/10/26 04:32:31;;;;;;;27.00;15.40;;;;;;;3.31;69.62;100585.05;114748;1193;137753;-69
2021/10/26 04:35:23;;;;;;;27.70;14.90;;;;;;;3.33;69.45;100585.22;114779;1193;112804;-69
2021/10/26 04:38:09;;;;;;;27.60;15.20;;;;;;;3.32;69.51;100579.03;114058;1193;138277;-71
2021/10/26 04:41:02;;;;;;;29.50;15.30;;;;;;;3.34;69.41;100582.81;113322;1194;108192;-70
2021/10/26 04:43:49;;;;;;;24.50;14.10;;;;;;;3.36;69.54;100580.92;113269;1193;139311;-71
2021/10/26 04:46:37;;;;;;;23.80;14.40;;;;;;;3.36;69.50;100573.19;113368;1193;97496;-71
2021/10/26 04:49:24;;;;;;;23.80;13.70;;;;;;;3.37;69.49;100570.78;114686;1193;137429;-69
2021/10/26 04:52:11;;;;;;;23.40;14.00;;;;;;;3.37;69.48;100569.92;114752;1193;108633;-69
2021/10/26 04:54:58;;;;;;;26.10;14.20;;;;;;;3.39;69.42;100568.20;114615;1193;138728;-69
2021/10/26 04:57:46;;;;;;;26.90;15.40;;;;;;;3.41;69.56;100571.48;113374;1193;97570;-71
2021/10/26 05:00:41;;;;;;;26.30;14.30;;;;;;;3.43;69.49;100569.27;113227;1193;137608;-71
2021/10/26 05:03:28;;;;;;;30.10;15.40;;;;;;;3.44;69.45;100567.54;113740;1195;112112;-69
2021/10/26 05:06:15;;;;;;;30.10;15.80;;;;;;;3.43;69.44;100567.38;113193;1193;137780;-70
2021/10/26 05:09:04;;;;;;;23.90;13.70;;;;;;;3.41;69.53;100564.09;113297;1193;108499;-70
2021/10/26 05:11:51;;;;;;;25.10;14.20;;;;;;;3.40;69.61;100566.48;114686;1194;95908;-71
2021/10/26 05:14:37;;;;;;;24.50;13.80;;;;;;;3.45;69.63;100567.38;114620;1193;138267;-69
2021/10/26 05:17:43;;;;;;;25.60;15.30;;;;;;;3.49;69.52;100568.58;114717;1193;112224;-70
2021/10/26 05:20:53;;;;;;;26.70;15.80;;;;;;;3.51;69.42;100574.42;114648;1193;137976;-69
2021/10/26 05:23:59;;;;;;;29.10;15.50;;;;;;;3.51;69.49;100570.81;114719;1193;107559;-68
2021/10/26 05:26:52;;;;;;;26.30;14.70;;;;;;;3.49;69.40;100573.56;113780;1193;137696;-71
2021/10/26 05:29:40;;;;;;;32.30;16.20;;;;;;;3.50;69.41;100573.91;113366;1193;97556;-70
2021/10/26 05:32:27;;;;;;;30.20;15.40;;;;;;;3.50;69.45;100574.77;114330;1193;137382;-70
2021/10/26 05:35:14;;;;;;;31.20;16.80;;;;;;;3.50;69.63;100581.65;114427;1193;108988;-69
2021/10/26 05:38:01;;;;;;;27.00;15.80;;;;;;;3.50;69.63;100582.16;114362;1193;138067;-70
2021/10/26 05:40:47;;;;;;;28.30;14.90;;;;;;;3.55;69.66;100587.15;114665;1187;95947;-70
2021/10/26 05:43:34;;;;;;;25.70;15.60;;;;;;;3.60;69.56;100583.05;114577;1193;138119;-70
2021/10/26 05:46:21;;;;;;;27.20;15.40;;;;;;;3.68;69.43;100586.83;113431;1193;112382;-70
2021/10/26 05:49:07;;;;;;;29.20;15.90;;;;;;;3.74;69.31;100585.96;113168;1193;138146;-70
2021/10/26 05:51:54;;;;;;;29.40;16.00;;;;;;;3.77;69.37;100585.30;112861;1193;109219;-70
2021/10/26 05:54:43;;;;;;;26.80;14.90;;;;;;;3.83;69.18;100586.17;112840;1193;139156;-69
2021/10/26 05:57:32;;;;;;;29.10;14.80;;;;;;;3.91;69.09;100584.78;112892;1195;97596;-70
2021/10/26 06:00:19;;;;;;;29.80;16.10;;;;;;;3.99;68.86;100590.65;113237;1193;112446;-70
2021/10/26 06:03:06;;;;;;;29.50;15.50;;;;;;;4.05;68.80;100593.05;114497;1193;137587;-70
2021/10/26 06:05:53;;;;;;;28.70;15.80;;;;;;;4.11;68.77;100589.59;114617;1193;107740;-68
2021/10/26 06:08:39;;;;;;;30.80;16.20;;;;;;;4.19;68.77;100589.95;114474;1195;139140;-69
2021/10/26 06:11:27;;;;;;;31.10;16.20;;;;;;;4.30;68.44;100592.69;114808;1193;95779;-68
2021/10/26 06:14:14;;;;;;;;;;;;;;;4.40;68.29;100601.11;114593;1193;139161;-68
2021/10/26 06:17:01;;;;;;;28.60;16.50;;;;;;;4.48;68.08;100601.79;114299;1193;107518;-74
2021/10/26 06:19:51;;;;;;;26.70;15.70;;;;;;;4.55;67.87;100602.65;113193;1193;137759;-70
2021/10/26 06:22:39;;;;;;;28.00;16.70;;;;;;;4.66;67.72;100602.79;113199;1194;97496;-70
2021/10/26 06:25:26;;;;;;;26.20;16.10;;;;;;;4.83;67.71;100600.15;114284;1193;138865;-70
2021/10/26 06:28:35;;;;;;;26.90;15.60;;;;;;;5.02;67.14;100600.59;114759;1193;112250;-69
2021/10/26 06:31:23;;;;;;;25.10;16.00;;;;;;;5.17;66.96;100599.67;114579;1193;138009;-69
2021/10/26 06:34:10;;;;;;;25.90;15.50;;;;;;;5.29;66.73;100601.34;114678;1193;107035;-69
2021/10/26 06:36:56;;;;;;;29.40;14.70;;;;;;;5.42;66.55;100602.31;113506;1193;137955;-69
2021/10/26 06:39:44;;;;;;;;;;;;;;;5.66;66.37;100601.13;113334;1195;97554;-70
2021/10/26 06:42:33;;;;;;;25.40;15.50;;;;;;;5.78;65.98;100602.10;113032;1194;112144;-73
2021/10/26 06:45:55;;;;;;;25.00;14.10;;;;;;;5.86;65.92;100605.31;114560;1193;107550;-68
2021/10/26 06:49:01;;;;;;;20.00;13.20;;;;;;;5.99;65.29;100611.11;114509;1193;108758;-67
2021/10/26 06:52:07;;;;;;;20.20;13.90;;;;;;;6.11;65.28;100614.13;114582;1193;95879;-68
2021/10/26 06:55:18;;;;;;;24.10;14.40;;;;;;;6.25;65.07;100616.42;114671;1193;96245;-68
2021/10/26 06:58:24;;;;;;;22.50;13.40;;;;;;;6.43;64.46;100617.98;114646;1193;112963;-68
2021/10/26 07:01:29;;;;;;;24.80;14.90;;;;;;;6.53;64.45;100616.17;114757;1193;107411;-68
2021/10/26 07:04:26;;;;;;;26.20;14.00;;;;;;;6.72;63.98;100612.52;114561;1194;137413;-68
2021/10/26 07:07:31;;;;;;;22.20;14.40;;;;;;;6.90;63.87;100612.52;114493;1193;97045;-68
2021/10/26 07:10:38;;;;;;;28.70;14.60;;;;;;;7.11;63.37;100612.42;114418;1193;138005;-68
2021/10/26 07:13:35;;;;;;;21.60;14.20;;;;;;;7.48;62.97;100616.61;114499;1193;111251;-68
2021/10/26 07:16:22;;;;;;;25.40;14.90;;;;;;;7.82;62.29;100616.99;113601;1195;137790;-69
2021/10/26 07:19:09;;;;;;;25.20;15.10;;;;;;;8.03;61.43;100619.09;113275;1193;108715;-68
2021/10/26 07:22:15;;;;;;;29.80;14.70;;;;;;;8.27;61.22;100616.80;113262;1194;137955;-68
2021/10/26 07:25:06;;;;;;;30.50;15.30;;;;;;;8.49;60.91;100613.85;113328;1193;97525;-68
2021/10/26 07:27:58;;;;;;;25.00;15.20;;;;;;;8.82;60.31;100615.50;113552;1193;138363;-68
2021/10/26 07:30:45;;;;;;;22.00;14.50;;;;;;;8.98;59.81;100615.00;113353;1194;108569;-68
2021/10/26 07:33:34;;;;;;;28.40;15.40;;;;;;;9.28;59.14;100613.52;112991;1196;137883;-68
2021/10/26 07:36:27;;;;;;;24.50;13.90;;;;;;;9.78;58.56;100609.81;113231;1194;97666;-68
2021/10/26 07:39:31;;;;;;;24.20;14.10;;;;;;;10.38;57.26;100603.36;114648;1193;137521;-69
2021/10/26 07:42:20;;;;;;;25.90;13.40;;;;;;;11.06;56.28;100598.89;114737;1186;112151;-69
2021/10/26 07:45:15;;;;;;;20.60;12.60;;;;;;;11.74;55.39;100599.98;114565;1193;138412;-69
2021/10/26 07:48:02;;;;;;;19.60;12.70;;;;;;;11.92;54.06;100595.61;114759;1193;108572;-69
2021/10/26 07:50:50;;;;;;;18.20;11.40;;;;;;;11.74;53.70;100589.37;114633;1193;138223;-69
2021/10/26 07:53:37;;;;;;;21.00;11.80;;;;;;;11.66;54.35;100588.05;113378;1193;98158;-69
2021/10/26 07:56:25;;;;;;;22.70;13.20;;;;;;;11.83;54.08;100588.94;113216;1193;137986;-68
2021/10/26 07:59:11;;;;;;;20.90;11.80;;;;;;;12.01;53.53;100589.23;113328;1194;109721;-68
2021/10/26 08:01:58;;;;;;;20.70;11.20;;;;;;;12.10;53.65;100583.34;113255;1192;108455;-68
2021/10/26 08:05:05;;;;;;;16.20;10.30;;;;;;;12.21;53.00;100584.38;113401;1193;97490;-68
2021/10/26 08:07:51;;;;;;;19.30;10.80;;;;;;;12.47;52.99;100589.94;113374;1193;97654;-68
2021/10/26 08:10:38;;;;;;;17.10;11.10;;;;;;;12.70;52.67;100583.75;113140;1194;152963;-69
2021/10/26 08:13:26;;;;;;;;;;;;;;;13.05;52.41;100583.67;113300;1194;108121;-70
2021/10/26 08:16:14;;;;;;;16.50;10.10;;;;;;;13.39;51.94;100584.36;113239;1193;124803;-70
2021/10/26 08:19:03;;;;;;;17.90;10.30;;;;;;;13.61;50.92;100571.96;113417;1193;97536;-68
2021/10/26 08:21:51;;;;;;;15.20;9.80;;;;;;;13.80;51.04;100572.77;114630;1193;138054;-69
2021/10/26 08:24:40;;;;;;;15.70;10.10;;;;;;;14.16;50.94;100566.75;114527;1193;111161;-68
2021/10/26 08:27:27;;;;;;;14.70;9.40;;;;;;;14.56;50.10;100570.83;113181;1194;138140;-70
2021/10/26 08:30:17;;;;;;;16.70;9.30;;;;;;;14.96;49.24;100579.23;113230;1193;108121;-67
2021/10/26 08:36:10;;;;;;;15.00;9.50;;;;;;;15.39;47.93;100576.39;113424;1193;97497;-68
2021/10/26 08:38:58;;;;;;;16.20;8.90;;;;;;;15.32;47.58;100576.52;113257;1194;137740;-68
2021/10/26 08:41:47;;;;;;;16.30;9.20;;;;;;;15.29;47.79;100573.52;112963;1194;107987;-68
2021/10/26 08:44:36;;;;;;;12.90;8.60;;;;;;;15.19;46.32;100569.79;112972;1194;108831;-69
2021/10/26 08:47:24;;;;;;;11.70;8.60;;;;;;;14.90;47.17;100570.02;113106;1195;97975;-67
2021/10/26 08:50:36;;;;;;;10.70;7.90;;;;;;;14.88;47.57;100569.41;114412;1193;96029;-68
2021/10/26 08:53:26;;;;;;;12.70;8.20;;;;;;;14.87;47.50;100568.05;114298;1193;137758;-66
2021/10/26 08:56:16;;;;;;;16.30;8.50;;;;;;;14.92;47.27;100566.10;114737;1193;108616;-68
2021/10/26 08:59:38;;;;;;;9.80;7.30;;;;;;;14.95;47.04;100566.66;114115;1197;138215;-71
2021/10/26 09:02:53;;;;;;;13.30;8.50;;;;;;;14.90;46.34;100569.69;114678;1193;95609;-69
2021/10/26 09:05:48;;;;;;;12.80;8.50;;;;;;;14.82;46.12;100564.44;114486;1195;138637;-68
2021/10/26 09:08:35;;;;;;;9.20;7.30;;;;;;;14.73;46.84;100565.02;114778;1193;112157;-69
2021/10/26 09:11:39;;;;;;;11.50;8.00;;;;;;;14.78;46.55;100556.73;114283;1193;139337;-66
2021/10/26 09:18:27;;;;;;;10.50;8.50;;;;;;;15.18;46.11;100556.71;113313;1193;97560;-68
2021/10/26 09:21:41;;;;;;;11.80;8.40;;;;;;;15.34;45.84;100566.27;113366;1193;97684;-69
2021/10/26 09:24:28;;;;;;;10.70;7.70;;;;;;;15.41;45.32;100562.08;114586;1194;138228;-69
2021/10/26 09:27:23;;;;;;;14.80;7.10;;;;;;;15.53;45.37;100567.66;114651;1193;108309;-69
2021/10/26 09:30:15;;;;;;;12.90;8.00;;;;;;;15.62;45.18;100564.96;114587;1193;138920;-69
2021/10/26 09:33:02;;;;;;;12.60;7.70;;;;;;;15.86;44.94;100553.15;114707;1193;95773;-69
2021/10/26 09:35:48;;;;;;;11.20;7.30;;;;;;;16.09;44.19;100555.29;114658;1193;138107;-69
2021/10/26 09:38:35;;;;;;;11.20;7.60;;;;;;;16.25;44.06;100559.55;114733;1193;112050;-69
2021/10/26 09:41:22;;;;;;;12.20;7.50;;;;;;;16.46;43.57;100557.09;114551;1193;139230;-69
2021/10/26 09:44:11;;;;;;;11.40;7.20;;;;;;;16.38;43.22;100556.77;114721;1193;108311;-73
2021/10/26 09:47:04;;;;;;;9.60;6.90;;;;;;;16.17;43.04;100550.84;114556;1193;138163;-72
2021/10/26 09:50:00;;;;;;;9.10;6.70;;;;;;;16.07;43.47;100554.20;114611;1193;97182;-71
2021/10/26 09:52:50;;;;;;;12.70;7.30;;;;;;;16.07;43.17;100558.02;113157;1193;137873;-69
2021/10/26 09:55:42;;;;;;;11.60;7.50;;;;;;;16.08;43.35;100563.09;113213;1193;108757;-71
2021/10/26 09:58:31;;;;;;;13.50;7.70;;;;;;;16.10;43.35;100556.51;113204;1193;138367;-71
2021/10/26 10:01:32;;;;;;;14.20;7.90;;;;;;;16.05;42.98;100549.70;113208;1194;97521;-70
2021/10/26 10:04:27;;;;;;;10.00;7.20;;;;;;;15.84;43.07;100563.23;114508;1193;138095;-72
2021/10/26 10:07:26;;;;;;;11.50;7.60;;;;;;;15.78;43.27;100563.31;114673;1193;112130;-73
2021/10/26 10:10:13;;;;;;;10.60;7.20;;;;;;;15.71;42.92;100562.79;114637;1193;137877;-72
2021/10/26 10:13:03;;;;;;;11.50;7.80;;;;;;;15.53;42.65;100562.77;114619;1193;108831;-70
2021/10/26 10:15:50;;;;;;;14.30;7.50;;;;;;;15.45;42.85;100549.11;114669;1193;96252;-71
2021/10/26 10:18:37;;;;;;;13.00;7.20;;;;;;;15.56;43.28;100538.78;114577;1194;138344;-72
2021/10/26 10:21:28;;;;;;;;;;;;;;;15.82;43.25;100536.14;114669;1193;112307;-72
2021/10/26 10:24:16;;;;;;;11.00;6.40;;;;;;;16.02;43.10;100528.44;114646;1194;124123;-69
2021/10/26 10:27:02;;;;;;;;;;;;;;;16.33;42.95;100524.96;114710;1193;108073;-71
2021/10/26 10:29:50;;;;;;;11.00;7.50;;;;;;;16.45;42.61;100522.26;114503;1193;124443;-71
2021/10/26 10:32:38;;;;;;;11.00;7.50;;;;;;;16.54;42.53;100518.08;114639;1193;95719;-71
2021/10/26 10:35:28;;;;;;;10.60;7.00;;;;;;;16.32;42.14;100511.13;114501;1194;139290;-71
2021/10/26 10:38:18;;;;;;;14.70;7.70;;;;;;;16.14;42.07;100520.17;114646;1193;109040;-68
2021/10/26 10:41:28;;;;;;;9.90;7.00;;;;;;;16.01;42.11;100523.07;114547;1193;138861;-69
2021/10/26 10:44:18;;;;;;;10.80;7.30;;;;;;;15.84;42.25;100524.29;114717;1193;95772;-71
2021/10/26 10:47:11;;;;;;;11.80;6.90;;;;;;;15.81;42.43;100526.20;114538;1193;137587;-68
2021/10/26 10:49:58;;;;;;;11.80;6.80;;;;;;;15.74;42.32;100524.23;114711;1193;112968;-73
2021/10/26 10:53:01;;;;;;;9.90;6.70;;;;;;;15.56;42.55;100523.88;114520;1193;139753;-67
2021/10/26 10:56:10;;;;;;;10.00;6.80;;;;;;;15.46;42.87;100523.29;114622;1193;108648;-71
2021/10/26 10:58:57;;;;;;;13.70;7.70;;;;;;;15.33;42.95;100520.42;114633;1193;138277;-70
2021/10/26 11:01:45;;;;;;;11.40;7.30;;;;;;;15.24;43.10;100513.67;114676;1193;95751;-69
2021/10/26 11:04:37;;;;;;;11.20;6.70;;;;;;;15.11;43.12;100508.84;114559;1193;137968;-71
2021/10/26 11:07:42;;;;;;;9.50;6.50;;;;;;;15.05;43.22;100507.00;114668;1193;108993;-71
2021/10/26 11:10:51;;;;;;;9.70;7.40;;;;;;;14.95;43.11;100508.55;113710;1193;137773;-71
2021/10/26 11:13:39;;;;;;;11.80;7.50;;;;;;;14.92;43.37;100509.54;113143;1193;97552;-71
2021/10/26 11:16:33;;;;;;;10.10;7.00;;;;;;;14.99;43.54;100508.86;113043;1193;137679;-70
2021/10/26 11:19:44;;;;;;;11.40;7.30;;;;;;;15.11;43.70;100499.21;113117;1193;111814;-71
2021/10/26 11:22:55;;;;;;;10.60;7.40;;;;;;;15.29;43.68;100500.49;113002;1193;138036;-70
2021/10/26 11:25:45;;;;;;;10.50;7.80;;;;;;;15.36;43.49;100501.16;114685;1193;107478;-71
2021/10/26 11:28:34;;;;;;;12.60;7.70;;;;;;;15.35;43.44;100495.98;114601;1193;138157;-69
2021/10/26 11:31:24;;;;;;;13.10;8.40;;;;;;;15.37;43.26;100493.42;114770;1193;95785;-70
2021/10/26 11:34:18;;;;;;;11.40;7.60;;;;;;;15.31;43.31;100491.42;114595;1193;137598;-70
2021/10/26 11:37:08;;;;;;;11.20;8.10;;;;;;;15.27;43.29;100493.91;113700;1193;108591;-69
2021/10/26 11:40:06;;;;;;;11.60;7.80;;;;;;;15.26;43.11;100495.87;112998;1193;108684;-72
2021/10/26 11:42:55;;;;;;;11.90;8.10;;;;;;;15.18;42.98;100495.37;112975;1196;139243;-71
2021/10/26 11:46:00;;;;;;;10.90;8.40;;;;;;;14.88;42.98;100496.27;113141;1193;97477;-71
2021/10/26 11:48:52;;;;;;;13.20;8.00;;;;;;;14.61;43.60;100489.45;113044;1194;138456;-72
2021/10/26 11:51:41;;;;;;;14.10;9.00;;;;;;;14.48;43.69;100485.45;113191;1193;107646;-71
2021/10/26 11:54:42;;;;;;;12.60;8.70;;;;;;;14.42;43.97;100483.24;113075;1194;137765;-75
2021/10/26 11:57:31;;;;;;;11.80;8.10;;;;;;;14.42;43.80;100488.31;113326;1193;97517;-67
2021/10/26 12:00:31;;;;;;;12.50;8.40;;;;;;;14.33;44.22;100484.33;113249;1193;137658;-72
2021/10/26 12:03:18;;;;;;;12.90;8.60;;;;;;;14.29;44.33;100478.23;113339;1193;112239;-68
2021/10/26 12:06:06;;;;;;;13.10;8.20;;;;;;;14.30;44.50;100475.52;113222;1193;137795;-68
2021/10/26 12:09:02;;;;;;;12.60;8.20;;;;;;;14.39;44.24;100473.39;113290;1193;108858;-69
2021/10/26 12:11:51;;;;;;;13.70;7.80;;;;;;;14.45;44.18;100464.75;113078;1193;137856;-68
2021/10/26 12:14:40;;;;;;;12.00;7.50;;;;;;;14.51;44.10;100477.79;113236;1193;97524;-68
2021/10/26 12:17:38;;;;;;;14.40;8.70;;;;;;;14.45;43.96;100477.55;113202;1193;137656;-68
2021/10/26 12:20:24;;;;;;;11.80;8.20;;;;;;;14.41;44.29;100471.23;113342;1193;108335;-68
2021/10/26 12:23:17;;;;;;;14.40;8.20;;;;;;;14.40;44.20;100465.66;114571;1193;138418;-67
2021/10/26 12:26:11;;;;;;;9.90;7.70;;;;;;;14.32;43.89;100466.04;114752;1193;95945;-67
2021/10/26 12:28:58;;;;;;;11.50;8.20;;;;;;;14.15;44.04;100457.16;114558;1193;137557;-67
2021/10/26 12:31:45;;;;;;;11.60;8.10;;;;;;;14.15;44.37;100454.86;114713;1193;111505;-67
2021/10/26 12:34:42;;;;;;;13.70;8.10;;;;;;;14.25;44.51;100465.12;114717;1193;108623;-68
2021/10/26 12:37:34;;;;;;;10.30;8.20;;;;;;;14.42;44.41;100463.32;114570;1193;108481;-67
2021/10/26 12:40:22;;;;;;;12.10;7.80;;;;;;;14.46;44.03;100460.00;114685;1193;95884;-70
2021/10/26 12:43:09;;;;;;;14.00;8.40;;;;;;;14.34;44.05;100457.35;114630;1193;138263;-68
2021/10/26 12:46:00;;;;;;;12.70;7.80;;;;;;;14.20;44.13;100451.34;114689;1193;111764;-70
2021/10/26 12:48:48;;;;;;;11.00;7.10;;;;;;;14.07;44.33;100447.36;114550;1193;138629;-67
2021/10/26 12:51:37;;;;;;;10.50;7.80;;;;;;;13.88;44.09;100444.85;114551;1193;110186;-68
2021/10/26 12:54:25;;;;;;;13.40;7.90;;;;;;;13.68;44.55;100445.36;114530;1193;138498;-67
2021/10/26 12:57:14;;;;;;;11.20;8.00;;;;;;;13.53;44.86;100448.77;114741;1193;96022;-68